sensor_id;sensor_type;location;lat;lon;timestamp;temperature;humidity
48162;DHT22;33950;48.154;16.316;2023-04-03T00:02:13;6.60;88.90
48162;DHT22;33950;48.154;16.316;2023-04-03T00:04:59;6.60;88.80
48162;DHT22;33950;48.154;16.316;2023-04-03T00:07:45;6.60;88.60
48162;DHT22;33950;48.154;16.316;2023-04-03T00:10:32;6.60;88.70
48162;DHT22;33950;48.154;16.316;2023-04-03T00:13:19;6.60;88.80
48162;DHT22;33950;48.154;16.316;2023-04-03T00:16:06;6.70;89.00
48162;DHT22;33950;48.154;16.316;2023-04-03T00:18:52;6.60;88.70
48162;DHT22;33950;48.154;16.316;2023-04-03T00:21:38;6.70;88.50
48162;DHT22;33950;48.154;16.316;2023-04-03T00:24:25;6.70;88.60
48162;DHT22;33950;48.154;16.316;2023-04-03T00:27:12;6.70;88.20
48162;DHT22;33950;48.154;16.316;2023-04-03T00:29:58;6.70;88.50
48162;DHT22;33950;48.154;16.316;2023-04-03T00:32:44;6.70;88.60
48162;DHT22;33950;48.154;16.316;2023-04-03T00:35:30;6.70;88.50
48162;DHT22;33950;48.154;16.316;2023-04-03T00:38:17;6.80;88.40
48162;DHT22;33950;48.154;16.316;2023-04-03T00:41:03;6.80;88.20
48162;DHT22;33950;48.154;16.316;2023-04-03T00:43:51;6.70;88.20
48162;DHT22;33950;48.154;16.316;2023-04-03T00:46:38;6.80;88.50
48162;DHT22;33950;48.154;16.316;2023-04-03T00:49:24;6.80;88.20
48162;DHT22;33950;48.154;16.316;2023-04-03T00:52:15;6.80;88.30
48162;DHT22;33950;48.154;16.316;2023-04-03T00:55:05;6.80;88.50
48162;DHT22;33950;48.154;16.316;2023-04-03T00:57:52;6.70;88.70
48162;DHT22;33950;48.154;16.316;2023-04-03T01:00:42;6.60;89.00
48162;DHT22;33950;48.154;16.316;2023-04-03T01:03:30;6.50;89.50
48162;DHT22;33950;48.154;16.316;2023-04-03T01:06:21;6.40;90.00
48162;DHT22;33950;48.154;16.316;2023-04-03T01:09:09;6.30;90.10
48162;DHT22;33950;48.154;16.316;2023-04-03T01:12:12;6.30;90.20
48162;DHT22;33950;48.154;16.316;2023-04-03T01:15:00;6.30;90.30
48162;DHT22;33950;48.154;16.316;2023-04-03T01:17:49;6.30;90.30
48162;DHT22;33950;48.154;16.316;2023-04-03T01:24:30;6.30;90.40
48162;DHT22;33950;48.154;16.316;2023-04-03T01:27:17;6.20;90.40
48162;DHT22;33950;48.154;16.316;2023-04-03T01:30:04;6.30;90.60
48162;DHT22;33950;48.154;16.316;2023-04-03T01:32:52;6.20;90.50
48162;DHT22;33950;48.154;16.316;2023-04-03T01:35:38;6.20;90.60
48162;DHT22;33950;48.154;16.316;2023-04-03T01:38:25;6.40;90.50
48162;DHT22;33950;48.154;16.316;2023-04-03T01:41:11;6.50;90.50
48162;DHT22;33950;48.154;16.316;2023-04-03T01:43:57;6.50;90.50
48162;DHT22;33950;48.154;16.316;2023-04-03T01:46:43;6.40;90.50
48162;DHT22;33950;48.154;16.316;2023-04-03T01:49:31;6.30;90.50
48162;DHT22;33950;48.154;16.316;2023-04-03T01:52:17;6.40;90.50
48162;DHT22;33950;48.154;16.316;2023-04-03T01:55:03;6.40;90.60
48162;DHT22;33950;48.154;16.316;2023-04-03T01:57:50;6.40;90.60
48162;DHT22;33950;48.154;16.316;2023-04-03T02:00:36;6.40;90.50
48162;DHT22;33950;48.154;16.316;2023-04-03T02:03:22;6.40;90.60
48162;DHT22;33950;48.154;16.316;2023-04-03T02:06:10;6.40;90.50
48162;DHT22;33950;48.154;16.316;2023-04-03T02:08:56;6.30;90.60
48162;DHT22;33950;48.154;16.316;2023-04-03T02:11:42;6.40;90.70
48162;DHT22;33950;48.154;16.316;2023-04-03T02:14:28;6.50;90.90
48162;DHT22;33950;48.154;16.316;2023-04-03T02:17:14;6.40;90.60
48162;DHT22;33950;48.154;16.316;2023-04-03T02:20:00;6.50;90.60
48162;DHT22;33950;48.154;16.316;2023-04-03T02:22:48;6.50;90.50
48162;DHT22;33950;48.154;16.316;2023-04-03T02:25:34;6.60;90.50
48162;DHT22;33950;48.154;16.316;2023-04-03T02:28:20;6.60;90.40
48162;DHT22;33950;48.154;16.316;2023-04-03T02:31:07;6.60;90.30
48162;DHT22;33950;48.154;16.316;2023-04-03T02:33:53;6.50;90.50
48162;DHT22;33950;48.154;16.316;2023-04-03T02:36:40;6.50;90.40
48162;DHT22;33950;48.154;16.316;2023-04-03T02:39:27;6.50;90.50
48162;DHT22;33950;48.154;16.316;2023-04-03T02:42:13;6.60;90.50
48162;DHT22;33950;48.154;16.316;2023-04-03T02:45:00;6.50;90.40
48162;DHT22;33950;48.154;16.316;2023-04-03T02:47:46;6.50;90.40
48162;DHT22;33950;48.154;16.316;2023-04-03T02:50:32;6.50;90.70
48162;DHT22;33950;48.154;16.316;2023-04-03T02:53:18;6.50;90.40
48162;DHT22;33950;48.154;16.316;2023-04-03T02:56:06;6.50;90.50
48162;DHT22;33950;48.154;16.316;2023-04-03T02:58:52;6.50;90.40
48162;DHT22;33950;48.154;16.316;2023-04-03T03:01:38;6.40;90.30
48162;DHT22;33950;48.154;16.316;2023-04-03T03:04:24;6.40;90.40
48162;DHT22;33950;48.154;16.316;2023-04-03T03:07:10;6.50;90.40
48162;DHT22;33950;48.154;16.316;2023-04-03T03:09:56;6.40;90.40
48162;DHT22;33950;48.154;16.316;2023-04-03T03:12:44;6.40;90.30
48162;DHT22;33950;48.154;16.316;2023-04-03T03:15:30;6.40;90.50
48162;DHT22;33950;48.154;16.316;2023-04-03T03:18:16;6.50;90.30
48162;DHT22;33950;48.154;16.316;2023-04-03T03:21:03;6.40;90.20
48162;DHT22;33950;48.154;16.316;2023-04-03T03:23:50;6.50;90.20
48162;DHT22;33950;48.154;16.316;2023-04-03T03:26:36;6.50;90.20
48162;DHT22;33950;48.154;16.316;2023-04-03T03:29:23;6.60;90.20
48162;DHT22;33950;48.154;16.316;2023-04-03T03:32:09;6.60;89.70
48162;DHT22;33950;48.154;16.316;2023-04-03T03:34:55;6.60;89.70
48162;DHT22;33950;48.154;16.316;2023-04-03T03:37:41;6.60;89.70
48162;DHT22;33950;48.154;16.316;2023-04-03T03:40:27;6.50;89.90
48162;DHT22;33950;48.154;16.316;2023-04-03T03:43:14;6.40;90.20
48162;DHT22;33950;48.154;16.316;2023-04-03T03:46:01;6.40;90.10
48162;DHT22;33950;48.154;16.316;2023-04-03T03:48:47;6.50;90.00
48162;DHT22;33950;48.154;16.316;2023-04-03T03:51:33;6.60;90.00
48162;DHT22;33950;48.154;16.316;2023-04-03T03:54:20;6.60;90.00
48162;DHT22;33950;48.154;16.316;2023-04-03T03:57:06;6.70;89.80
48162;DHT22;33950;48.154;16.316;2023-04-03T03:59:52;6.80;89.90
48162;DHT22;33950;48.154;16.316;2023-04-03T04:02:40;6.80;89.40
48162;DHT22;33950;48.154;16.316;2023-04-03T04:05:26;6.70;89.30
48162;DHT22;33950;48.154;16.316;2023-04-03T04:08:12;6.60;89.40
48162;DHT22;33950;48.154;16.316;2023-04-03T04:10:58;6.60;89.70
48162;DHT22;33950;48.154;16.316;2023-04-03T04:13:44;6.60;89.80
48162;DHT22;33950;48.154;16.316;2023-04-03T04:16:30;6.50;89.90
48162;DHT22;33950;48.154;16.316;2023-04-03T04:19:18;6.40;90.00
48162;DHT22;33950;48.154;16.316;2023-04-03T04:22:04;6.30;90.00
48162;DHT22;33950;48.154;16.316;2023-04-03T04:24:50;6.40;90.10
48162;DHT22;33950;48.154;16.316;2023-04-03T04:27:36;6.50;89.80
48162;DHT22;33950;48.154;16.316;2023-04-03T04:30:22;6.50;89.00
48162;DHT22;33950;48.154;16.316;2023-04-03T04:33:09;6.40;89.50
48162;DHT22;33950;48.154;16.316;2023-04-03T04:35:57;6.50;89.20
48162;DHT22;33950;48.154;16.316;2023-04-03T04:38:43;6.50;88.90
48162;DHT22;33950;48.154;16.316;2023-04-03T04:41:30;6.50;88.80
48162;DHT22;33950;48.154;16.316;2023-04-03T04:44:16;6.50;88.60
48162;DHT22;33950;48.154;16.316;2023-04-03T04:47:02;6.30;89.00
48162;DHT22;33950;48.154;16.316;2023-04-03T04:49:48;6.30;89.10
48162;DHT22;33950;48.154;16.316;2023-04-03T04:52:35;6.20;89.00
48162;DHT22;33950;48.154;16.316;2023-04-03T04:55:22;6.20;89.20
48162;DHT22;33950;48.154;16.316;2023-04-03T04:58:08;6.30;89.30
48162;DHT22;33950;48.154;16.316;2023-04-03T05:00:58;6.30;89.10
48162;DHT22;33950;48.154;16.316;2023-04-03T05:03:45;6.30;88.80
48162;DHT22;33950;48.154;16.316;2023-04-03T05:06:31;6.30;89.60
48162;DHT22;33950;48.154;16.316;2023-04-03T05:09:20;6.40;88.70
48162;DHT22;33950;48.154;16.316;2023-04-03T05:12:06;6.30;88.60
48162;DHT22;33950;48.154;16.316;2023-04-03T05:14:52;6.30;89.00
48162;DHT22;33950;48.154;16.316;2023-04-03T05:17:38;6.50;88.90
48162;DHT22;33950;48.154;16.316;2023-04-03T05:20:24;6.50;88.50
48162;DHT22;33950;48.154;16.316;2023-04-03T05:23:11;6.40;88.70
48162;DHT22;33950;48.154;16.316;2023-04-03T05:25:58;6.30;88.60
48162;DHT22;33950;48.154;16.316;2023-04-03T05:28:45;6.20;88.70
48162;DHT22;33950;48.154;16.316;2023-04-03T05:31:31;6.30;88.60
48162;DHT22;33950;48.154;16.316;2023-04-03T05:34:17;6.20;88.70
48162;DHT22;33950;48.154;16.316;2023-04-03T05:37:03;6.20;88.90
48162;DHT22;33950;48.154;16.316;2023-04-03T05:39:50;6.20;88.60
48162;DHT22;33950;48.154;16.316;2023-04-03T05:42:38;6.20;88.00
48162;DHT22;33950;48.154;16.316;2023-04-03T05:45:24;6.10;88.00
48162;DHT22;33950;48.154;16.316;2023-04-03T05:48:10;6.10;88.20
48162;DHT22;33950;48.154;16.316;2023-04-03T05:50:57;6.10;87.80
48162;DHT22;33950;48.154;16.316;2023-04-03T05:53:45;6.00;88.00
48162;DHT22;33950;48.154;16.316;2023-04-03T05:56:32;5.90;88.40
48162;DHT22;33950;48.154;16.316;2023-04-03T05:59:20;5.90;88.60
48162;DHT22;33950;48.154;16.316;2023-04-03T06:02:06;5.90;88.60
48162;DHT22;33950;48.154;16.316;2023-04-03T06:04:53;5.80;88.70
48162;DHT22;33950;48.154;16.316;2023-04-03T06:07:39;5.90;89.60
48162;DHT22;33950;48.154;16.316;2023-04-03T06:10:25;6.00;88.70
48162;DHT22;33950;48.154;16.316;2023-04-03T06:13:12;6.00;88.40
48162;DHT22;33950;48.154;16.316;2023-04-03T06:15:59;6.00;88.40
48162;DHT22;33950;48.154;16.316;2023-04-03T06:18:45;5.90;88.70
48162;DHT22;33950;48.154;16.316;2023-04-03T06:21:32;6.00;88.40
48162;DHT22;33950;48.154;16.316;2023-04-03T06:24:18;5.90;88.40
48162;DHT22;33950;48.154;16.316;2023-04-03T06:27:06;5.90;89.40
48162;DHT22;33950;48.154;16.316;2023-04-03T06:29:52;5.90;88.40
48162;DHT22;33950;48.154;16.316;2023-04-03T06:32:39;6.00;88.60
48162;DHT22;33950;48.154;16.316;2023-04-03T06:35:26;6.10;87.30
48162;DHT22;33950;48.154;16.316;2023-04-03T06:38:14;6.00;87.40
48162;DHT22;33950;48.154;16.316;2023-04-03T06:41:00;6.00;88.20
48162;DHT22;33950;48.154;16.316;2023-04-03T06:43:46;6.00;87.70
48162;DHT22;33950;48.154;16.316;2023-04-03T06:46:32;5.90;87.80
48162;DHT22;33950;48.154;16.316;2023-04-03T06:49:20;6.00;87.50
48162;DHT22;33950;48.154;16.316;2023-04-03T06:52:06;6.00;87.60
48162;DHT22;33950;48.154;16.316;2023-04-03T06:54:52;6.00;87.80
48162;DHT22;33950;48.154;16.316;2023-04-03T06:57:42;5.90;88.60
48162;DHT22;33950;48.154;16.316;2023-04-03T07:00:29;6.00;88.10
48162;DHT22;33950;48.154;16.316;2023-04-03T07:03:15;6.10;88.10
48162;DHT22;33950;48.154;16.316;2023-04-03T07:06:03;6.20;87.90
48162;DHT22;33950;48.154;16.316;2023-04-03T07:08:50;6.20;87.50
48162;DHT22;33950;48.154;16.316;2023-04-03T07:11:36;6.20;87.00
48162;DHT22;33950;48.154;16.316;2023-04-03T07:14:22;6.30;86.70
48162;DHT22;33950;48.154;16.316;2023-04-03T07:17:08;6.40;86.40
48162;DHT22;33950;48.154;16.316;2023-04-03T07:19:54;6.50;85.70
48162;DHT22;33950;48.154;16.316;2023-04-03T07:22:42;6.40;84.30
48162;DHT22;33950;48.154;16.316;2023-04-03T07:25:28;6.20;84.50
48162;DHT22;33950;48.154;16.316;2023-04-03T07:28:15;6.20;85.10
48162;DHT22;33950;48.154;16.316;2023-04-03T07:31:04;6.30;84.70
48162;DHT22;33950;48.154;16.316;2023-04-03T07:33:52;6.30;84.30
48162;DHT22;33950;48.154;16.316;2023-04-03T07:36:38;6.30;85.00
48162;DHT22;33950;48.154;16.316;2023-04-03T07:39:25;6.40;84.10
48162;DHT22;33950;48.154;16.316;2023-04-03T07:42:11;6.50;84.30
48162;DHT22;33950;48.154;16.316;2023-04-03T07:44:58;6.60;84.60
48162;DHT22;33950;48.154;16.316;2023-04-03T07:47:44;6.70;84.10
48162;DHT22;33950;48.154;16.316;2023-04-03T07:50:30;6.60;83.40
48162;DHT22;33950;48.154;16.316;2023-04-03T07:53:18;6.70;83.40
48162;DHT22;33950;48.154;16.316;2023-04-03T07:56:06;6.70;81.80
48162;DHT22;33950;48.154;16.316;2023-04-03T07:58:53;6.70;83.20
48162;DHT22;33950;48.154;16.316;2023-04-03T08:01:39;6.70;81.70
48162;DHT22;33950;48.154;16.316;2023-04-03T08:04:26;7.00;85.50
48162;DHT22;33950;48.154;16.316;2023-04-03T08:07:12;7.10;81.20
48162;DHT22;33950;48.154;16.316;2023-04-03T08:09:58;7.00;81.20
48162;DHT22;33950;48.154;16.316;2023-04-03T08:12:48;6.90;80.20
48162;DHT22;33950;48.154;16.316;2023-04-03T08:15:35;6.90;79.40
48162;DHT22;33950;48.154;16.316;2023-04-03T08:18:21;6.80;80.10
48162;DHT22;33950;48.154;16.316;2023-04-03T08:21:11;6.70;79.90
48162;DHT22;33950;48.154;16.316;2023-04-03T08:23:58;6.70;79.70
48162;DHT22;33950;48.154;16.316;2023-04-03T08:26:44;6.70;80.10
48162;DHT22;33950;48.154;16.316;2023-04-03T08:29:31;6.80;79.30
48162;DHT22;33950;48.154;16.316;2023-04-03T08:32:17;6.90;79.40
48162;DHT22;33950;48.154;16.316;2023-04-03T08:35:04;6.90;79.60
48162;DHT22;33950;48.154;16.316;2023-04-03T08:37:50;6.90;78.80
48162;DHT22;33950;48.154;16.316;2023-04-03T08:40:36;6.90;79.40
48162;DHT22;33950;48.154;16.316;2023-04-03T08:43:32;6.90;78.90
48162;DHT22;33950;48.154;16.316;2023-04-03T08:46:25;6.90;77.40
48162;DHT22;33950;48.154;16.316;2023-04-03T08:49:22;7.00;78.60
48162;DHT22;33950;48.154;16.316;2023-04-03T08:52:11;7.10;77.40
48162;DHT22;33950;48.154;16.316;2023-04-03T08:55:00;7.10;73.70
48162;DHT22;33950;48.154;16.316;2023-04-03T08:57:48;7.10;76.00
48162;DHT22;33950;48.154;16.316;2023-04-03T09:00:40;7.10;75.80
48162;DHT22;33950;48.154;16.316;2023-04-03T09:03:33;7.30;76.70
48162;DHT22;33950;48.154;16.316;2023-04-03T09:06:22;7.40;75.60
48162;DHT22;33950;48.154;16.316;2023-04-03T09:09:14;7.30;75.20
48162;DHT22;33950;48.154;16.316;2023-04-03T09:12:11;7.50;74.50
48162;DHT22;33950;48.154;16.316;2023-04-03T09:15:08;7.70;74.40
48162;DHT22;33950;48.154;16.316;2023-04-03T09:18:02;7.60;73.20
48162;DHT22;33950;48.154;16.316;2023-04-03T09:20:57;7.80;74.10
48162;DHT22;33950;48.154;16.316;2023-04-03T09:23:49;7.60;72.00
48162;DHT22;33950;48.154;16.316;2023-04-03T09:26:39;7.60;73.60
48162;DHT22;33950;48.154;16.316;2023-04-03T09:29:29;7.60;72.20
48162;DHT22;33950;48.154;16.316;2023-04-03T09:32:21;7.60;73.30
48162;DHT22;33950;48.154;16.316;2023-04-03T09:35:17;7.70;74.30
48162;DHT22;33950;48.154;16.316;2023-04-03T09:38:18;7.90;72.90
48162;DHT22;33950;48.154;16.316;2023-04-03T09:41:06;7.90;71.80
48162;DHT22;33950;48.154;16.316;2023-04-03T09:43:54;7.80;71.10
48162;DHT22;33950;48.154;16.316;2023-04-03T09:46:40;7.60;70.60
48162;DHT22;33950;48.154;16.316;2023-04-03T09:49:26;7.50;70.40
48162;DHT22;33950;48.154;16.316;2023-04-03T09:52:24;7.50;72.20
48162;DHT22;33950;48.154;16.316;2023-04-03T09:55:16;7.50;70.30
48162;DHT22;33950;48.154;16.316;2023-04-03T09:58:05;7.30;71.80
48162;DHT22;33950;48.154;16.316;2023-04-03T10:01:21;7.50;71.40
48162;DHT22;33950;48.154;16.316;2023-04-03T10:04:10;7.80;72.30
48162;DHT22;33950;48.154;16.316;2023-04-03T10:06:57;8.00;71.60
48162;DHT22;33950;48.154;16.316;2023-04-03T10:09:55;7.60;71.20
48162;DHT22;33950;48.154;16.316;2023-04-03T10:12:42;7.40;72.40
48162;DHT22;33950;48.154;16.316;2023-04-03T10:15:31;7.60;73.40
48162;DHT22;33950;48.154;16.316;2023-04-03T10:18:29;7.50;72.90
48162;DHT22;33950;48.154;16.316;2023-04-03T10:21:24;7.30;72.20
48162;DHT22;33950;48.154;16.316;2023-04-03T10:24:18;7.10;72.40
48162;DHT22;33950;48.154;16.316;2023-04-03T10:27:07;7.00;73.30
48162;DHT22;33950;48.154;16.316;2023-04-03T10:30:02;7.00;72.90
48162;DHT22;33950;48.154;16.316;2023-04-03T10:33:00;7.00;73.60
48162;DHT22;33950;48.154;16.316;2023-04-03T10:35:57;7.10;71.90
48162;DHT22;33950;48.154;16.316;2023-04-03T10:38:51;7.00;71.80
48162;DHT22;33950;48.154;16.316;2023-04-03T10:41:47;7.20;72.20
48162;DHT22;33950;48.154;16.316;2023-04-03T10:44:42;7.30;72.80
48162;DHT22;33950;48.154;16.316;2023-04-03T10:47:41;7.40;72.50
48162;DHT22;33950;48.154;16.316;2023-04-03T10:50:43;7.30;73.00
48162;DHT22;33950;48.154;16.316;2023-04-03T10:53:37;7.20;71.40
48162;DHT22;33950;48.154;16.316;2023-04-03T10:56:31;7.20;72.20
48162;DHT22;33950;48.154;16.316;2023-04-03T10:59:23;7.20;71.80
48162;DHT22;33950;48.154;16.316;2023-04-03T11:02:16;7.10;69.90
48162;DHT22;33950;48.154;16.316;2023-04-03T11:05:04;7.00;69.30
48162;DHT22;33950;48.154;16.316;2023-04-03T11:07:55;7.00;70.00
48162;DHT22;33950;48.154;16.316;2023-04-03T11:10:46;7.10;68.20
48162;DHT22;33950;48.154;16.316;2023-04-03T11:13:37;7.00;69.30
48162;DHT22;33950;48.154;16.316;2023-04-03T11:16:26;7.10;69.00
48162;DHT22;33950;48.154;16.316;2023-04-03T11:19:17;7.10;68.80
48162;DHT22;33950;48.154;16.316;2023-04-03T11:22:16;7.20;67.70
48162;DHT22;33950;48.154;16.316;2023-04-03T11:25:13;7.20;68.50
48162;DHT22;33950;48.154;16.316;2023-04-03T11:28:02;7.50;69.70
48162;DHT22;33950;48.154;16.316;2023-04-03T11:30:54;7.60;69.00
48162;DHT22;33950;48.154;16.316;2023-04-03T11:33:53;7.40;66.80
48162;DHT22;33950;48.154;16.316;2023-04-03T11:36:43;7.40;67.40
48162;DHT22;33950;48.154;16.316;2023-04-03T11:39:34;7.30;67.40
48162;DHT22;33950;48.154;16.316;2023-04-03T11:42:29;7.50;67.30
48162;DHT22;33950;48.154;16.316;2023-04-03T11:45:33;7.40;66.60
48162;DHT22;33950;48.154;16.316;2023-04-03T11:51:42;7.20;66.50
48162;DHT22;33950;48.154;16.316;2023-04-03T11:54:45;7.30;66.10
48162;DHT22;33950;48.154;16.316;2023-04-03T12:00:57;7.50;65.90
48162;DHT22;33950;48.154;16.316;2023-04-03T12:04:08;7.60;65.60
48162;DHT22;33950;48.154;16.316;2023-04-03T12:07:13;7.70;65.70
48162;DHT22;33950;48.154;16.316;2023-04-03T12:13:15;7.90;65.40
48162;DHT22;33950;48.154;16.316;2023-04-03T12:16:02;7.90;64.20
48162;DHT22;33950;48.154;16.316;2023-04-03T12:18:58;7.90;63.60
48162;DHT22;33950;48.154;16.316;2023-04-03T12:22:05;7.60;64.70
48162;DHT22;33950;48.154;16.316;2023-04-03T12:24:53;7.40;64.80
48162;DHT22;33950;48.154;16.316;2023-04-03T12:27:42;7.10;64.40
48162;DHT22;33950;48.154;16.316;2023-04-03T12:30:30;6.90;64.50
48162;DHT22;33950;48.154;16.316;2023-04-03T12:33:25;6.90;65.30
48162;DHT22;33950;48.154;16.316;2023-04-03T12:36:21;7.10;66.40
48162;DHT22;33950;48.154;16.316;2023-04-03T12:39:33;7.00;64.90
48162;DHT22;33950;48.154;16.316;2023-04-03T12:45:44;6.90;65.80
48162;DHT22;33950;48.154;16.316;2023-04-03T12:48:37;7.10;65.00
48162;DHT22;33950;48.154;16.316;2023-04-03T12:51:35;7.00;64.20
48162;DHT22;33950;48.154;16.316;2023-04-03T12:54:27;7.10;63.30
48162;DHT22;33950;48.154;16.316;2023-04-03T12:57:16;7.10;64.30
48162;DHT22;33950;48.154;16.316;2023-04-03T13:00:20;7.00;64.30
48162;DHT22;33950;48.154;16.316;2023-04-03T13:03:21;6.90;65.20
48162;DHT22;33950;48.154;16.316;2023-04-03T13:06:17;7.00;65.50
48162;DHT22;33950;48.154;16.316;2023-04-03T13:09:06;7.30;65.30
48162;DHT22;33950;48.154;16.316;2023-04-03T13:12:03;7.50;64.80
48162;DHT22;33950;48.154;16.316;2023-04-03T13:14:57;7.80;64.30
48162;DHT22;33950;48.154;16.316;2023-04-03T13:17:44;8.50;62.00
48162;DHT22;33950;48.154;16.316;2023-04-03T13:20:33;8.50;61.20
48162;DHT22;33950;48.154;16.316;2023-04-03T13:23:21;8.50;61.00
48162;DHT22;33950;48.154;16.316;2023-04-03T13:26:09;8.70;62.10
48162;DHT22;33950;48.154;16.316;2023-04-03T13:28:59;8.80;61.30
48162;DHT22;33950;48.154;16.316;2023-04-03T13:31:46;8.50;60.90
48162;DHT22;33950;48.154;16.316;2023-04-03T13:34:37;8.30;61.10
48162;DHT22;33950;48.154;16.316;2023-04-03T13:37:27;8.20;61.60
48162;DHT22;33950;48.154;16.316;2023-04-03T13:40:13;8.10;60.50
48162;DHT22;33950;48.154;16.316;2023-04-03T13:43:02;8.30;60.80
48162;DHT22;33950;48.154;16.316;2023-04-03T13:46:01;8.40;60.50
48162;DHT22;33950;48.154;16.316;2023-04-03T13:48:52;8.20;61.40
48162;DHT22;33950;48.154;16.316;2023-04-03T13:51:39;8.00;60.90
48162;DHT22;33950;48.154;16.316;2023-04-03T13:54:31;7.90;61.50
48162;DHT22;33950;48.154;16.316;2023-04-03T13:57:18;7.80;60.60
48162;DHT22;33950;48.154;16.316;2023-04-03T14:00:27;7.90;61.60
48162;DHT22;33950;48.154;16.316;2023-04-03T14:03:19;8.30;61.50
48162;DHT22;33950;48.154;16.316;2023-04-03T14:06:08;8.30;61.00
48162;DHT22;33950;48.154;16.316;2023-04-03T14:08:55;8.30;62.10
48162;DHT22;33950;48.154;16.316;2023-04-03T14:11:43;8.00;62.50
48162;DHT22;33950;48.154;16.316;2023-04-03T14:14:31;7.90;62.60
48162;DHT22;33950;48.154;16.316;2023-04-03T14:17:20;7.80;63.00
48162;DHT22;33950;48.154;16.316;2023-04-03T14:20:14;7.70;63.10
48162;DHT22;33950;48.154;16.316;2023-04-03T14:23:00;7.70;62.80
48162;DHT22;33950;48.154;16.316;2023-04-03T14:25:46;8.10;63.40
48162;DHT22;33950;48.154;16.316;2023-04-03T14:28:35;8.60;60.70
48162;DHT22;33950;48.154;16.316;2023-04-03T14:31:21;8.40;60.50
48162;DHT22;33950;48.154;16.316;2023-04-03T14:34:09;8.10;61.60
48162;DHT22;33950;48.154;16.316;2023-04-03T14:36:56;8.00;62.20
48162;DHT22;33950;48.154;16.316;2023-04-03T14:39:46;7.80;62.30
48162;DHT22;33950;48.154;16.316;2023-04-03T14:42:34;7.70;62.00
48162;DHT22;33950;48.154;16.316;2023-04-03T14:45:22;7.60;62.90
48162;DHT22;33950;48.154;16.316;2023-04-03T14:48:10;7.40;63.20
48162;DHT22;33950;48.154;16.316;2023-04-03T14:50:57;7.50;63.50
48162;DHT22;33950;48.154;16.316;2023-04-03T14:53:44;7.50;64.00
48162;DHT22;33950;48.154;16.316;2023-04-03T14:56:30;7.50;62.90
48162;DHT22;33950;48.154;16.316;2023-04-03T14:59:16;7.40;62.60
48162;DHT22;33950;48.154;16.316;2023-04-03T15:02:25;7.50;62.40
48162;DHT22;33950;48.154;16.316;2023-04-03T15:05:12;7.90;63.50
48162;DHT22;33950;48.154;16.316;2023-04-03T15:07:58;7.90;62.10
48162;DHT22;33950;48.154;16.316;2023-04-03T15:10:46;7.50;62.90
48162;DHT22;33950;48.154;16.316;2023-04-03T15:13:33;7.20;62.60
48162;DHT22;33950;48.154;16.316;2023-04-03T15:16:19;7.10;63.70
48162;DHT22;33950;48.154;16.316;2023-04-03T15:19:07;7.10;64.50
48162;DHT22;33950;48.154;16.316;2023-04-03T15:21:53;7.20;63.80
48162;DHT22;33950;48.154;16.316;2023-04-03T15:24:39;7.40;63.30
48162;DHT22;33950;48.154;16.316;2023-04-03T15:27:25;7.90;62.60
48162;DHT22;33950;48.154;16.316;2023-04-03T15:30:15;8.00;62.00
48162;DHT22;33950;48.154;16.316;2023-04-03T15:33:01;7.70;61.50
48162;DHT22;33950;48.154;16.316;2023-04-03T15:35:49;7.30;62.10
48162;DHT22;33950;48.154;16.316;2023-04-03T15:38:35;7.30;62.70
48162;DHT22;33950;48.154;16.316;2023-04-03T15:41:23;7.40;63.10
48162;DHT22;33950;48.154;16.316;2023-04-03T15:44:09;7.70;62.60
48162;DHT22;33950;48.154;16.316;2023-04-03T15:46:55;7.80;62.20
48162;DHT22;33950;48.154;16.316;2023-04-03T15:49:42;7.60;62.10
48162;DHT22;33950;48.154;16.316;2023-04-03T15:52:29;7.20;61.90
48162;DHT22;33950;48.154;16.316;2023-04-03T15:55:16;7.10;62.00
48162;DHT22;33950;48.154;16.316;2023-04-03T15:58:02;6.80;62.80
48162;DHT22;33950;48.154;16.316;2023-04-03T16:00:49;6.80;63.10
48162;DHT22;33950;48.154;16.316;2023-04-03T16:03:35;6.80;62.50
48162;DHT22;33950;48.154;16.316;2023-04-03T16:06:21;6.90;61.90
48162;DHT22;33950;48.154;16.316;2023-04-03T16:09:11;7.00;62.20
48162;DHT22;33950;48.154;16.316;2023-04-03T16:11:57;7.10;61.90
48162;DHT22;33950;48.154;16.316;2023-04-03T16:14:43;6.90;62.00
48162;DHT22;33950;48.154;16.316;2023-04-03T16:17:29;6.70;62.70
48162;DHT22;33950;48.154;16.316;2023-04-03T16:20:17;6.70;61.90
48162;DHT22;33950;48.154;16.316;2023-04-03T16:23:04;6.60;62.20
48162;DHT22;33950;48.154;16.316;2023-04-03T16:25:52;6.60;61.70
48162;DHT22;33950;48.154;16.316;2023-04-03T16:28:38;6.50;62.00
48162;DHT22;33950;48.154;16.316;2023-04-03T16:31:25;6.60;62.40
48162;DHT22;33950;48.154;16.316;2023-04-03T16:34:12;6.70;61.80
48162;DHT22;33950;48.154;16.316;2023-04-03T16:36:58;6.80;62.10
48162;DHT22;33950;48.154;16.316;2023-04-03T16:39:44;6.70;62.20
48162;DHT22;33950;48.154;16.316;2023-04-03T16:42:32;6.70;62.00
48162;DHT22;33950;48.154;16.316;2023-04-03T16:45:18;6.50;62.70
48162;DHT22;33950;48.154;16.316;2023-04-03T16:48:05;6.40;63.10
48162;DHT22;33950;48.154;16.316;2023-04-03T16:50:51;6.40;63.40
48162;DHT22;33950;48.154;16.316;2023-04-03T16:53:40;6.50;64.00
48162;DHT22;33950;48.154;16.316;2023-04-03T16:56:27;6.50;64.10
48162;DHT22;33950;48.154;16.316;2023-04-03T16:59:15;6.50;63.30
48162;DHT22;33950;48.154;16.316;2023-04-03T17:02:01;6.40;63.40
48162;DHT22;33950;48.154;16.316;2023-04-03T17:04:47;6.40;63.50
48162;DHT22;33950;48.154;16.316;2023-04-03T17:07:33;6.40;63.60
48162;DHT22;33950;48.154;16.316;2023-04-03T17:10:20;6.30;63.70
48162;DHT22;33950;48.154;16.316;2023-04-03T17:13:06;6.30;63.20
48162;DHT22;33950;48.154;16.316;2023-04-03T17:15:53;6.30;62.70
48162;DHT22;33950;48.154;16.316;2023-04-03T17:18:40;6.10;63.00
48162;DHT22;33950;48.154;16.316;2023-04-03T17:21:27;6.10;63.00
48162;DHT22;33950;48.154;16.316;2023-04-03T17:24:13;6.10;63.30
48162;DHT22;33950;48.154;16.316;2023-04-03T17:27:00;6.10;63.10
48162;DHT22;33950;48.154;16.316;2023-04-03T17:29:46;6.10;63.20
48162;DHT22;33950;48.154;16.316;2023-04-03T17:32:33;6.00;63.20
48162;DHT22;33950;48.154;16.316;2023-04-03T17:35:19;6.00;63.40
48162;DHT22;33950;48.154;16.316;2023-04-03T17:38:05;6.00;63.60
48162;DHT22;33950;48.154;16.316;2023-04-03T17:40:54;6.10;63.40
48162;DHT22;33950;48.154;16.316;2023-04-03T17:43:41;6.00;63.70
48162;DHT22;33950;48.154;16.316;2023-04-03T17:46:27;6.00;64.10
48162;DHT22;33950;48.154;16.316;2023-04-03T17:49:16;6.00;63.90
48162;DHT22;33950;48.154;16.316;2023-04-03T17:52:03;5.90;63.80
48162;DHT22;33950;48.154;16.316;2023-04-03T17:54:49;5.80;63.90
48162;DHT22;33950;48.154;16.316;2023-04-03T17:57:35;5.80;64.20
48162;DHT22;33950;48.154;16.316;2023-04-03T18:00:21;5.80;64.00
48162;DHT22;33950;48.154;16.316;2023-04-03T18:03:08;5.80;64.10